createdAt,value
2023-02-16T00:00:29.281Z,82.03
2023-02-16T00:02:56.875Z,75.95
2023-02-16T00:05:26.037Z,77.88
2023-02-16T00:07:54.901Z,77.97
2023-02-16T00:10:22.812Z,75.75
2023-02-16T00:13:09.098Z,79.57
2023-02-16T00:15:36.533Z,70.68
2023-02-16T00:18:19.388Z,75.63
2023-02-16T00:20:48.440Z,65.55
2023-02-16T00:23:16.025Z,72.15
2023-02-16T00:25:43.458Z,70.25
2023-02-16T00:28:19.530Z,72.10
2023-02-16T00:30:47.404Z,67.10
2023-02-16T00:33:17.276Z,73.90
2023-02-16T00:35:44.958Z,76.50
2023-02-16T00:38:13.122Z,68.82
2023-02-16T00:40:41.846Z,70.82
2023-02-16T00:43:25.166Z,66.32
2023-02-16T00:45:53.489Z,75.13
2023-02-16T00:48:21.801Z,74.78
2023-02-16T00:50:49.547Z,70.85
2023-02-16T00:53:18.580Z,77.90
2023-02-16T00:55:46.087Z,71.85
2023-02-16T00:58:26.633Z,68.60
2023-02-16T01:00:57.826Z,69.25
2023-02-16T01:03:28.448Z,73.97
2023-02-16T01:06:14.996Z,74.03
2023-02-16T01:09:18.082Z,74.07
2023-02-16T01:11:45.445Z,74.07
2023-02-16T01:14:13.572Z,66.53
2023-02-16T01:16:42.382Z,67.20
2023-02-16T01:19:12.158Z,72.97
2023-02-16T01:21:40.141Z,74.43
2023-02-16T01:24:07.710Z,63.63
2023-02-16T01:26:40.801Z,66.57
2023-02-16T01:29:14.634Z,62.42
2023-02-16T01:31:42.440Z,68.10
2023-02-16T01:34:09.985Z,58.90
2023-02-16T01:36:48.145Z,71.55
2023-02-16T01:39:19.599Z,71.53
2023-02-16T01:42:31.260Z,71.82
2023-02-16T01:45:09.288Z,67.53
2023-02-16T01:47:51.796Z,67.32
2023-02-16T01:50:48.346Z,68.63
2023-02-16T01:53:21.288Z,60.25
2023-02-16T01:55:56.390Z,71.65
2023-02-16T01:58:35.866Z,59.03
2023-02-16T02:01:05.156Z,67.63
2023-02-16T02:03:54.068Z,72.32
2023-02-16T02:06:28.044Z,63.72
2023-02-16T02:09:10.385Z,67.68
2023-02-16T02:14:33.017Z,58.63
2023-02-16T02:17:07.490Z,63.22
2023-02-16T02:20:01.124Z,71.22
2023-02-16T02:22:52.997Z,56.40
2023-02-16T02:25:58.626Z,66.00
2023-02-16T02:28:53.444Z,63.83
2023-02-16T02:31:29.021Z,56.10
2023-02-16T02:34:47.942Z,60.35
2023-02-16T02:37:18.032Z,57.53
2023-02-16T02:40:10.428Z,59.08
2023-02-16T02:42:59.806Z,63.55
2023-02-16T02:45:47.773Z,59.55
2023-02-16T02:48:15.505Z,63.97
2023-02-16T02:51:16.848Z,59.67
2023-02-16T02:54:17.974Z,63.05
2023-02-16T02:57:11.264Z,58.88
2023-02-16T03:00:01.762Z,60.22
2023-02-16T03:02:32.064Z,64.35
2023-02-16T03:05:01.370Z,64.97
2023-02-16T03:07:48.837Z,62.75
2023-02-16T03:10:39.033Z,63.75
2023-02-16T03:13:13.278Z,65.03
2023-02-16T03:15:42.064Z,60.58
2023-02-16T03:18:29.612Z,66.15
2023-02-16T03:21:16.013Z,62.03
2023-02-16T03:24:04.203Z,63.97
2023-02-16T03:26:51.073Z,62.00
2023-02-16T03:29:22.761Z,63.10
2023-02-16T03:31:52.147Z,64.57
2023-02-16T03:34:21.261Z,58.80
2023-02-16T03:36:52.305Z,60.92
2023-02-16T03:39:20.801Z,72.83
2023-02-16T03:41:52.987Z,68.35
2023-02-16T03:44:21.085Z,58.88
2023-02-16T03:46:51.456Z,58.83
2023-02-16T03:49:19.758Z,59.75
2023-02-16T03:51:47.588Z,59.10
2023-02-16T03:54:15.095Z,66.10
2023-02-16T03:56:42.458Z,56.60
2023-02-16T03:59:09.780Z,58.45
2023-02-16T04:01:37.185Z,61.05
2023-02-16T04:04:04.735Z,57.28
2023-02-16T04:06:32.151Z,61.83
2023-02-16T04:08:59.543Z,64.03
2023-02-16T04:11:45.474Z,65.97
2023-02-16T04:14:13.138Z,64.60
2023-02-16T04:16:40.568Z,59.20
2023-02-16T04:19:08.045Z,65.60
2023-02-16T04:21:35.418Z,60.53
2023-02-16T04:24:04.097Z,62.30
2023-02-16T04:26:33.058Z,63.13
2023-02-16T04:29:00.697Z,62.45
2023-02-16T04:31:28.067Z,69.82
2023-02-16T04:33:55.469Z,65.30
2023-02-16T04:36:22.851Z,65.95
2023-02-16T04:38:50.128Z,68.15
2023-02-16T04:41:17.438Z,69.55
2023-02-16T04:43:44.791Z,69.32
2023-02-16T04:46:12.146Z,72.22
2023-02-16T04:48:39.557Z,73.80
2023-02-16T04:51:06.887Z,69.93
2023-02-16T04:53:34.325Z,74.25
2023-02-16T04:56:01.840Z,75.95
2023-02-16T04:58:29.193Z,65.90
2023-02-16T05:00:56.573Z,72.38
2023-02-16T05:03:23.862Z,78.60
2023-02-16T05:05:51.384Z,78.47
2023-02-16T05:08:20.838Z,72.88
2023-02-16T05:11:11.194Z,70.63
2023-02-16T05:13:57.047Z,71.18
2023-02-16T05:16:24.842Z,72.72
2023-02-16T05:18:52.210Z,69.03
2023-02-16T05:21:31.527Z,73.72
2023-02-16T05:24:01.181Z,70.07
2023-02-16T05:26:29.347Z,71.35
2023-02-16T05:28:57.316Z,73.30
2023-02-16T05:31:25.684Z,69.22
2023-02-16T05:33:53.399Z,72.13
2023-02-16T05:36:21.199Z,73.63
2023-02-16T05:38:48.988Z,70.53
2023-02-16T05:41:23.538Z,81.45
2023-02-16T05:43:59.277Z,65.82
2023-02-16T05:46:28.331Z,70.07
2023-02-16T05:48:56.203Z,73.30
2023-02-16T05:51:23.620Z,64.38
2023-02-16T05:53:51.179Z,66.93
2023-02-16T05:56:19.861Z,74.25
2023-02-16T05:58:47.594Z,74.25
2023-02-16T06:01:15.198Z,69.78
2023-02-16T06:03:42.853Z,65.65
2023-02-16T06:06:10.645Z,72.50
2023-02-16T06:08:38.750Z,64.07
2023-02-16T06:11:07.222Z,51.47
2023-02-16T06:13:34.704Z,62.03
2023-02-16T06:16:02.113Z,49.33
2023-02-16T06:18:29.402Z,54.08
2023-02-16T06:20:57.746Z,61.10
2023-02-16T06:23:25.043Z,61.20
2023-02-16T06:25:52.345Z,61.95
2023-02-16T06:28:19.624Z,63.75
2023-02-16T06:30:46.963Z,56.92
2023-02-16T06:33:14.310Z,57.88
2023-02-16T06:35:41.609Z,60.33
2023-02-16T06:38:08.929Z,58.05
2023-02-16T06:40:36.291Z,70.28
2023-02-16T06:43:03.692Z,72.55
2023-02-16T06:45:31.052Z,59.88
2023-02-16T06:47:58.520Z,66.63
2023-02-16T06:50:25.830Z,62.20
2023-02-16T06:52:53.163Z,71.60
2023-02-16T06:55:20.681Z,73.32
2023-02-16T06:57:48.044Z,68.35
2023-02-16T07:00:16.232Z,68.05
2023-02-16T07:02:43.883Z,71.68
2023-02-16T07:05:11.264Z,66.10
2023-02-16T07:07:38.626Z,75.82
2023-02-16T07:10:06.834Z,72.20
2023-02-16T07:12:34.146Z,67.28
2023-02-16T07:15:01.573Z,68.75
2023-02-16T07:17:28.861Z,72.18
2023-02-16T07:19:58.239Z,67.53
2023-02-16T07:22:26.985Z,67.05
2023-02-16T07:24:56.512Z,71.43
2023-02-16T07:27:25.264Z,67.10
2023-02-16T07:29:52.761Z,69.50
2023-02-16T07:32:20.173Z,74.35
2023-02-16T07:34:47.581Z,69.68
2023-02-16T07:37:14.925Z,63.22
2023-02-16T07:39:42.208Z,68.68
2023-02-16T07:42:09.567Z,70.25
2023-02-16T07:44:36.875Z,78.07
2023-02-16T07:47:05.154Z,66.88
2023-02-16T07:49:32.548Z,72.13
2023-02-16T07:51:59.959Z,66.70
2023-02-16T07:54:27.372Z,66.32
2023-02-16T07:56:54.654Z,69.10
2023-02-16T07:59:22.044Z,71.90
2023-02-16T08:01:49.558Z,65.53
2023-02-16T08:04:16.969Z,66.60
2023-02-16T08:06:45.995Z,59.53
2023-02-16T08:09:13.313Z,60.50
2023-02-16T08:11:41.062Z,57.75
2023-02-16T08:14:08.498Z,53.35
2023-02-16T08:16:36.030Z,59.53
2023-02-16T08:19:04.563Z,59.00
2023-02-16T08:21:34.204Z,56.95
2023-02-16T08:24:06.763Z,54.35
2023-02-16T08:26:39.732Z,51.88
2023-02-16T08:29:10.036Z,55.05
2023-02-16T08:31:38.516Z,79.00
2023-02-16T08:34:06.978Z,70.72
2023-02-16T08:36:36.458Z,55.10
2023-02-16T08:39:07.071Z,51.88
2023-02-16T08:41:36.918Z,49.97
2023-02-16T08:44:06.310Z,50.60
2023-02-16T08:46:35.193Z,50.85
2023-02-16T08:49:03.376Z,50.90
2023-02-16T08:51:34.726Z,42.65
2023-02-16T08:54:05.839Z,42.88
2023-02-16T08:56:34.444Z,48.03
2023-02-16T08:59:02.368Z,53.53
2023-02-16T09:01:29.762Z,49.45
2023-02-16T09:03:57.171Z,42.53
2023-02-16T09:06:24.579Z,42.90
2023-02-16T09:08:53.733Z,52.00
2023-02-16T09:11:22.028Z,49.47
2023-02-16T09:13:50.490Z,54.45
2023-02-16T09:16:22.594Z,48.80
2023-02-16T09:18:50.936Z,53.17
2023-02-16T09:21:25.584Z,60.83
2023-02-16T09:23:55.836Z,54.97
2023-02-16T09:26:24.509Z,60.42
2023-02-16T09:28:53.650Z,64.85
2023-02-16T09:31:27.142Z,71.60
2023-02-16T09:34:03.972Z,80.03
2023-02-16T09:36:32.114Z,79.82
2023-02-16T09:38:59.928Z,96.68
2023-02-16T09:41:36.116Z,92.72
2023-02-16T09:44:11.972Z,82.15
2023-02-16T09:46:40.744Z,100.03
2023-02-16T09:49:23.859Z,93.47
2023-02-16T09:52:13.410Z,95.68
2023-02-16T09:55:00.981Z,98.82
2023-02-16T09:58:06.212Z,102.88
2023-02-16T10:00:33.550Z,117.93
2023-02-16T10:03:38.244Z,124.18
2023-02-16T10:06:23.381Z,119.85
2023-02-16T10:09:01.618Z,122.78
2023-02-16T10:11:38.076Z,122.07
2023-02-16T10:14:32.752Z,126.18
2023-02-16T10:17:30.863Z,119.78
2023-02-16T10:20:23.453Z,131.13
2023-02-16T10:23:12.461Z,132.45
2023-02-16T10:25:46.475Z,129.80
2023-02-16T10:28:16.794Z,115.88
2023-02-16T10:30:53.000Z,117.10
2023-02-16T10:33:41.130Z,124.75
2023-02-16T10:36:31.693Z,122.13
2023-02-16T10:39:09.636Z,119.35
2023-02-16T10:41:43.552Z,113.07
2023-02-16T10:44:21.405Z,113.18
2023-02-16T10:46:56.794Z,113.97
2023-02-16T10:49:25.574Z,124.75
2023-02-16T10:51:55.397Z,118.95
2023-02-16T10:54:32.975Z,120.35
2023-02-16T10:57:05.520Z,127.70
2023-02-16T10:59:43.005Z,123.30
2023-02-16T11:02:45.378Z,130.23
2023-02-16T11:05:38.037Z,135.43
2023-02-16T11:08:08.033Z,131.85
2023-02-16T11:10:54.195Z,118.68
2023-02-16T11:13:33.009Z,123.93
2023-02-16T11:16:10.745Z,107.43
2023-02-16T14:53:08.851Z,260.85
2023-02-16T14:56:06.840Z,216.07
2023-02-16T14:58:52.461Z,171.18
2023-02-16T15:01:21.580Z,172.15
2023-02-16T15:03:54.778Z,170.98
2023-02-16T15:06:36.471Z,164.40
2023-02-16T15:09:14.096Z,201.38
2023-02-16T15:12:10.415Z,172.75
2023-02-16T15:14:59.629Z,167.32
2023-02-16T15:17:45.575Z,181.60
2023-02-16T15:20:34.609Z,165.88
2023-02-16T15:23:16.365Z,174.18
2023-02-16T15:25:54.431Z,174.65
2023-02-16T15:28:26.070Z,184.25
2023-02-16T15:30:57.300Z,162.50
2023-02-16T15:33:24.656Z,178.23
2023-02-16T15:35:59.610Z,184.68
2023-02-16T15:38:38.124Z,165.20
2023-02-16T15:41:14.502Z,172.80
2023-02-16T15:43:48.285Z,168.07
